sensor_id;sensor_type;location;lat;lon;timestamp;temperature;humidity
52073;DHT22;38074;51.232;6.826;2023-04-16T00:03:38;23.50;45.70
52073;DHT22;38074;51.232;6.826;2023-04-16T00:10:54;23.50;45.60
52073;DHT22;38074;51.232;6.826;2023-04-16T00:18:09;23.50;45.50
52073;DHT22;38074;51.232;6.826;2023-04-16T00:25:25;23.50;45.50
52073;DHT22;38074;51.232;6.826;2023-04-16T00:32:40;23.50;45.40
52073;DHT22;38074;51.232;6.826;2023-04-16T00:39:56;23.50;45.40
52073;DHT22;38074;51.232;6.826;2023-04-16T00:47:11;23.50;45.40
52073;DHT22;38074;51.232;6.826;2023-04-16T00:54:27;23.50;45.30
52073;DHT22;38074;51.232;6.826;2023-04-16T01:01:43;23.50;45.30
52073;DHT22;38074;51.232;6.826;2023-04-16T01:08:59;23.50;45.30
52073;DHT22;38074;51.232;6.826;2023-04-16T01:16:14;23.50;45.30
52073;DHT22;38074;51.232;6.826;2023-04-16T01:23:30;23.50;45.20
52073;DHT22;38074;51.232;6.826;2023-04-16T01:30:46;23.50;45.90
52073;DHT22;38074;51.232;6.826;2023-04-16T01:38:02;23.60;45.90
52073;DHT22;38074;51.232;6.826;2023-04-16T01:45:18;23.50;45.10
52073;DHT22;38074;51.232;6.826;2023-04-16T01:52:33;23.50;45.10
52073;DHT22;38074;51.232;6.826;2023-04-16T01:59:49;23.50;45.10
52073;DHT22;38074;51.232;6.826;2023-04-16T02:07:05;23.50;45.00
52073;DHT22;38074;51.232;6.826;2023-04-16T02:14:21;23.50;45.00
52073;DHT22;38074;51.232;6.826;2023-04-16T02:21:39;23.50;45.00
52073;DHT22;38074;51.232;6.826;2023-04-16T02:28:56;23.50;44.90
52073;DHT22;38074;51.232;6.826;2023-04-16T02:36:11;23.50;44.90
52073;DHT22;38074;51.232;6.826;2023-04-16T02:43:27;23.50;44.90
52073;DHT22;38074;51.232;6.826;2023-04-16T02:50:42;23.50;44.90
52073;DHT22;38074;51.232;6.826;2023-04-16T02:57:58;23.50;44.80
52073;DHT22;38074;51.232;6.826;2023-04-16T03:05:13;23.50;44.80
52073;DHT22;38074;51.232;6.826;2023-04-16T03:12:29;23.50;44.70
52073;DHT22;38074;51.232;6.826;2023-04-16T03:19:44;23.50;44.80
52073;DHT22;38074;51.232;6.826;2023-04-16T03:27:00;23.50;44.70
52073;DHT22;38074;51.232;6.826;2023-04-16T03:34:16;23.50;44.80
52073;DHT22;38074;51.232;6.826;2023-04-16T03:41:32;23.50;44.80
52073;DHT22;38074;51.232;6.826;2023-04-16T03:48:47;23.50;44.80
52073;DHT22;38074;51.232;6.826;2023-04-16T03:56:03;23.50;44.80
52073;DHT22;38074;51.232;6.826;2023-04-16T04:03:19;23.50;44.80
52073;DHT22;38074;51.232;6.826;2023-04-16T04:10:35;23.50;44.70
52073;DHT22;38074;51.232;6.826;2023-04-16T04:17:51;23.50;44.80
52073;DHT22;38074;51.232;6.826;2023-04-16T04:25:08;23.50;44.80
52073;DHT22;38074;51.232;6.826;2023-04-16T04:32:24;23.50;44.80
52073;DHT22;38074;51.232;6.826;2023-04-16T04:39:39;23.50;44.80
52073;DHT22;38074;51.232;6.826;2023-04-16T04:46:55;23.50;44.80
52073;DHT22;38074;51.232;6.826;2023-04-16T04:54:11;23.50;44.80
52073;DHT22;38074;51.232;6.826;2023-04-16T05:01:26;23.60;44.90
52073;DHT22;38074;51.232;6.826;2023-04-16T05:08:42;23.50;44.90
52073;DHT22;38074;51.232;6.826;2023-04-16T05:15:58;23.50;44.80
52073;DHT22;38074;51.232;6.826;2023-04-16T05:23:13;23.50;44.60
52073;DHT22;38074;51.232;6.826;2023-04-16T05:30:29;23.50;44.50
52073;DHT22;38074;51.232;6.826;2023-04-16T05:37:45;23.50;44.50
52073;DHT22;38074;51.232;6.826;2023-04-16T05:45:01;23.50;44.40
52073;DHT22;38074;51.232;6.826;2023-04-16T05:52:19;23.50;44.30
52073;DHT22;38074;51.232;6.826;2023-04-16T05:59:34;23.40;44.20
52073;DHT22;38074;51.232;6.826;2023-04-16T06:06:50;23.50;44.20
52073;DHT22;38074;51.232;6.826;2023-04-16T06:14:05;23.50;44.20
52073;DHT22;38074;51.232;6.826;2023-04-16T06:21:21;23.40;44.10
52073;DHT22;38074;51.232;6.826;2023-04-16T06:28:37;23.40;44.40
52073;DHT22;38074;51.232;6.826;2023-04-16T06:35:52;23.40;44.10
52073;DHT22;38074;51.232;6.826;2023-04-16T06:43:08;23.40;44.50
52073;DHT22;38074;51.232;6.826;2023-04-16T06:50:24;23.30;44.10
52073;DHT22;38074;51.232;6.826;2023-04-16T06:57:41;23.30;45.20
52073;DHT22;38074;51.232;6.826;2023-04-16T07:04:56;23.40;44.40
52073;DHT22;38074;51.232;6.826;2023-04-16T07:12:11;23.30;44.40
52073;DHT22;38074;51.232;6.826;2023-04-16T07:19:27;23.40;44.70
52073;DHT22;38074;51.232;6.826;2023-04-16T07:26:46;23.40;44.50
52073;DHT22;38074;51.232;6.826;2023-04-16T07:34:02;23.20;43.60
52073;DHT22;38074;51.232;6.826;2023-04-16T07:41:17;23.20;44.70
52073;DHT22;38074;51.232;6.826;2023-04-16T07:48:33;23.20;44.10
52073;DHT22;38074;51.232;6.826;2023-04-16T07:55:48;23.10;44.10
52073;DHT22;38074;51.232;6.826;2023-04-16T08:03:04;23.00;43.70
52073;DHT22;38074;51.232;6.826;2023-04-16T08:10:19;23.00;43.60
52073;DHT22;38074;51.232;6.826;2023-04-16T08:17:35;23.00;44.40
52073;DHT22;38074;51.232;6.826;2023-04-16T08:24:51;23.10;44.60
52073;DHT22;38074;51.232;6.826;2023-04-16T08:32:07;23.20;44.50
52073;DHT22;38074;51.232;6.826;2023-04-16T08:39:24;23.20;44.30
52073;DHT22;38074;51.232;6.826;2023-04-16T08:46:40;23.20;44.30
52073;DHT22;38074;51.232;6.826;2023-04-16T08:54:04;23.20;44.10
52073;DHT22;38074;51.232;6.826;2023-04-16T09:01:20;23.20;43.80
52073;DHT22;38074;51.232;6.826;2023-04-16T09:08:36;23.20;43.80
52073;DHT22;38074;51.232;6.826;2023-04-16T09:15:53;23.20;43.60
52073;DHT22;38074;51.232;6.826;2023-04-16T09:23:09;23.20;43.40
52073;DHT22;38074;51.232;6.826;2023-04-16T09:30:26;23.20;43.30
52073;DHT22;38074;51.232;6.826;2023-04-16T09:37:41;23.20;43.10
52073;DHT22;38074;51.232;6.826;2023-04-16T09:44:58;23.20;42.90
52073;DHT22;38074;51.232;6.826;2023-04-16T09:52:15;23.20;42.70
52073;DHT22;38074;51.232;6.826;2023-04-16T09:59:30;23.20;43.00
52073;DHT22;38074;51.232;6.826;2023-04-16T10:07:05;23.10;42.00
52073;DHT22;38074;51.232;6.826;2023-04-16T10:14:20;23.10;41.70
52073;DHT22;38074;51.232;6.826;2023-04-16T10:21:36;23.10;41.80
52073;DHT22;38074;51.232;6.826;2023-04-16T10:28:52;23.10;41.70
52073;DHT22;38074;51.232;6.826;2023-04-16T10:36:16;23.10;41.60
52073;DHT22;38074;51.232;6.826;2023-04-16T10:43:44;23.20;41.50
52073;DHT22;38074;51.232;6.826;2023-04-16T10:51:00;23.20;41.70
52073;DHT22;38074;51.232;6.826;2023-04-16T10:58:33;23.20;41.90
52073;DHT22;38074;51.232;6.826;2023-04-16T11:05:49;23.30;42.20
52073;DHT22;38074;51.232;6.826;2023-04-16T11:13:05;23.30;42.20
52073;DHT22;38074;51.232;6.826;2023-04-16T11:20:25;23.40;43.00
52073;DHT22;38074;51.232;6.826;2023-04-16T11:27:41;23.40;42.60
52073;DHT22;38074;51.232;6.826;2023-04-16T11:34:56;23.40;42.60
52073;DHT22;38074;51.232;6.826;2023-04-16T11:42:20;23.40;42.70
52073;DHT22;38074;51.232;6.826;2023-04-16T11:49:37;23.40;42.90
52073;DHT22;38074;51.232;6.826;2023-04-16T11:56:52;23.40;42.80
52073;DHT22;38074;51.232;6.826;2023-04-16T12:04:08;23.40;42.70
52073;DHT22;38074;51.232;6.826;2023-04-16T12:11:41;23.40;42.70
52073;DHT22;38074;51.232;6.826;2023-04-16T12:19:01;23.40;42.70
52073;DHT22;38074;51.232;6.826;2023-04-16T12:26:18;23.40;42.60
52073;DHT22;38074;51.232;6.826;2023-04-16T12:33:33;23.40;42.60
52073;DHT22;38074;51.232;6.826;2023-04-16T12:40:49;23.40;42.60
52073;DHT22;38074;51.232;6.826;2023-04-16T12:48:05;23.40;42.50
52073;DHT22;38074;51.232;6.826;2023-04-16T12:55:20;23.40;42.40
52073;DHT22;38074;51.232;6.826;2023-04-16T13:02:36;23.40;42.50
52073;DHT22;38074;51.232;6.826;2023-04-16T13:09:51;23.40;42.40
52073;DHT22;38074;51.232;6.826;2023-04-16T13:17:07;23.30;41.70
52073;DHT22;38074;51.232;6.826;2023-04-16T13:24:22;23.30;41.30
52073;DHT22;38074;51.232;6.826;2023-04-16T13:31:38;23.20;40.90
52073;DHT22;38074;51.232;6.826;2023-04-16T13:38:54;23.20;40.70
52073;DHT22;38074;51.232;6.826;2023-04-16T13:46:09;23.20;40.70
52073;DHT22;38074;51.232;6.826;2023-04-16T13:53:25;23.20;40.50
52073;DHT22;38074;51.232;6.826;2023-04-16T14:00:41;23.20;40.30
52073;DHT22;38074;51.232;6.826;2023-04-16T14:07:57;23.20;40.20
52073;DHT22;38074;51.232;6.826;2023-04-16T14:15:12;23.20;40.00
52073;DHT22;38074;51.232;6.826;2023-04-16T14:22:29;23.10;39.90
52073;DHT22;38074;51.232;6.826;2023-04-16T14:29:44;23.20;39.90
52073;DHT22;38074;51.232;6.826;2023-04-16T14:37:00;23.20;39.80
52073;DHT22;38074;51.232;6.826;2023-04-16T14:44:16;23.20;39.80
52073;DHT22;38074;51.232;6.826;2023-04-16T14:51:32;23.20;39.70
52073;DHT22;38074;51.232;6.826;2023-04-16T14:58:48;23.20;39.50
52073;DHT22;38074;51.232;6.826;2023-04-16T15:06:03;23.20;39.50
52073;DHT22;38074;51.232;6.826;2023-04-16T15:13:19;23.20;39.50
52073;DHT22;38074;51.232;6.826;2023-04-16T15:20:35;23.20;39.40
52073;DHT22;38074;51.232;6.826;2023-04-16T15:27:51;23.20;39.30
52073;DHT22;38074;51.232;6.826;2023-04-16T15:35:07;23.20;39.20
52073;DHT22;38074;51.232;6.826;2023-04-16T15:42:23;23.20;39.20
52073;DHT22;38074;51.232;6.826;2023-04-16T15:49:39;23.20;39.10
52073;DHT22;38074;51.232;6.826;2023-04-16T15:56:54;23.20;39.10
52073;DHT22;38074;51.232;6.826;2023-04-16T16:04:10;23.20;39.10
52073;DHT22;38074;51.232;6.826;2023-04-16T16:11:26;23.20;39.00
52073;DHT22;38074;51.232;6.826;2023-04-16T16:18:41;23.20;39.60
52073;DHT22;38074;51.232;6.826;2023-04-16T16:25:57;23.20;38.80
52073;DHT22;38074;51.232;6.826;2023-04-16T16:33:13;23.20;38.70
52073;DHT22;38074;51.232;6.826;2023-04-16T16:40:29;23.10;38.60
52073;DHT22;38074;51.232;6.826;2023-04-16T16:47:45;23.20;38.70
52073;DHT22;38074;51.232;6.826;2023-04-16T16:55:01;23.20;38.70
52073;DHT22;38074;51.232;6.826;2023-04-16T17:02:17;23.20;39.00
52073;DHT22;38074;51.232;6.826;2023-04-16T17:09:33;23.20;39.40
52073;DHT22;38074;51.232;6.826;2023-04-16T17:16:48;23.20;39.50
52073;DHT22;38074;51.232;6.826;2023-04-16T17:24:04;23.20;39.70
52073;DHT22;38074;51.232;6.826;2023-04-16T17:31:19;23.20;40.00
52073;DHT22;38074;51.232;6.826;2023-04-16T17:38:35;23.20;40.90
52073;DHT22;38074;51.232;6.826;2023-04-16T17:45:51;23.20;40.30
52073;DHT22;38074;51.232;6.826;2023-04-16T17:53:06;23.20;40.50
52073;DHT22;38074;51.232;6.826;2023-04-16T18:00:22;23.10;40.60
52073;DHT22;38074;51.232;6.826;2023-04-16T18:07:37;23.10;40.70
52073;DHT22;38074;51.232;6.826;2023-04-16T18:14:53;23.10;40.90
52073;DHT22;38074;51.232;6.826;2023-04-16T18:22:09;23.10;41.00
52073;DHT22;38074;51.232;6.826;2023-04-16T18:29:25;23.10;41.20
52073;DHT22;38074;51.232;6.826;2023-04-16T18:36:40;23.20;41.60
52073;DHT22;38074;51.232;6.826;2023-04-16T18:43:56;23.20;41.80
52073;DHT22;38074;51.232;6.826;2023-04-16T18:51:11;23.20;41.60
52073;DHT22;38074;51.232;6.826;2023-04-16T18:58:27;23.20;41.70
52073;DHT22;38074;51.232;6.826;2023-04-16T19:05:42;23.10;41.90
52073;DHT22;38074;51.232;6.826;2023-04-16T19:12:58;23.20;42.40
52073;DHT22;38074;51.232;6.826;2023-04-16T19:20:14;23.30;42.70
52073;DHT22;38074;51.232;6.826;2023-04-16T19:27:30;23.40;43.20
52073;DHT22;38074;51.232;6.826;2023-04-16T19:34:45;23.40;43.30
52073;DHT22;38074;51.232;6.826;2023-04-16T19:42:01;23.40;43.60
52073;DHT22;38074;51.232;6.826;2023-04-16T19:49:17;23.40;43.90
52073;DHT22;38074;51.232;6.826;2023-04-16T19:56:32;23.40;44.20
52073;DHT22;38074;51.232;6.826;2023-04-16T20:03:48;23.40;44.40
52073;DHT22;38074;51.232;6.826;2023-04-16T20:11:03;23.40;44.60
52073;DHT22;38074;51.232;6.826;2023-04-16T20:18:19;23.40;44.80
52073;DHT22;38074;51.232;6.826;2023-04-16T20:25:40;23.40;45.00
52073;DHT22;38074;51.232;6.826;2023-04-16T20:32:55;23.40;45.20
52073;DHT22;38074;51.232;6.826;2023-04-16T20:40:11;23.50;45.30
52073;DHT22;38074;51.232;6.826;2023-04-16T20:47:28;23.50;45.30
52073;DHT22;38074;51.232;6.826;2023-04-16T20:54:43;23.50;45.40
52073;DHT22;38074;51.232;6.826;2023-04-16T21:01:59;23.50;45.40
52073;DHT22;38074;51.232;6.826;2023-04-16T21:09:14;23.50;45.60
52073;DHT22;38074;51.232;6.826;2023-04-16T21:16:31;23.50;45.70
52073;DHT22;38074;51.232;6.826;2023-04-16T21:23:46;23.50;45.90
52073;DHT22;38074;51.232;6.826;2023-04-16T21:31:02;23.40;46.10
52073;DHT22;38074;51.232;6.826;2023-04-16T21:38:18;23.40;46.20
52073;DHT22;38074;51.232;6.826;2023-04-16T21:45:34;23.40;46.20
52073;DHT22;38074;51.232;6.826;2023-04-16T21:52:49;23.40;46.30
52073;DHT22;38074;51.232;6.826;2023-04-16T22:00:08;23.40;46.30
52073;DHT22;38074;51.232;6.826;2023-04-16T22:07:27;23.40;46.40
52073;DHT22;38074;51.232;6.826;2023-04-16T22:14:44;23.40;46.30
52073;DHT22;38074;51.232;6.826;2023-04-16T22:22:00;23.40;46.30
52073;DHT22;38074;51.232;6.826;2023-04-16T22:29:16;23.40;46.40
52073;DHT22;38074;51.232;6.826;2023-04-16T22:36:31;23.40;46.20
52073;DHT22;38074;51.232;6.826;2023-04-16T22:43:47;23.40;46.20
52073;DHT22;38074;51.232;6.826;2023-04-16T22:51:11;23.40;46.20
52073;DHT22;38074;51.232;6.826;2023-04-16T22:58:27;23.40;46.20
52073;DHT22;38074;51.232;6.826;2023-04-16T23:05:43;23.30;46.00
52073;DHT22;38074;51.232;6.826;2023-04-16T23:12:58;23.30;45.90
52073;DHT22;38074;51.232;6.826;2023-04-16T23:20:14;23.30;46.60
52073;DHT22;38074;51.232;6.826;2023-04-16T23:27:29;23.30;45.90
52073;DHT22;38074;51.232;6.826;2023-04-16T23:34:46;23.40;45.90
52073;DHT22;38074;51.232;6.826;2023-04-16T23:42:02;23.30;45.80
52073;DHT22;38074;51.232;6.826;2023-04-16T23:49:17;23.30;45.70
52073;DHT22;38074;51.232;6.826;2023-04-16T23:56:33;23.30;45.70
